Middle Georgia Regional Airport Macon US
ICAO: KMCN
IATA: MCN
Category: Medium
Scheduled Services: Yes

Elevation: 354 ft
TransAlt. 18000 ft.

Airport Communications:
ATLANTA APP/DEP:118.95
ASOS:120.775
ATIS:120.775
CTAF:128.2
GND:121.65
MACON RDO:122.2
MACON TWR:128.2
UNICOM:122.95

KMCN Zoom In..

If you have problems with the map follow the link
https://www.worldairports.se/pages/airport.php?
ICAO=KMCN

Runways:

(A) RW 05 length 6501 ft width 150 ft
ILS 109.50 / hdg 51

(B) RW 13 length 5000 ft width 150 ft
---- / hdg 133

(C) RW 23 length 6501 ft width 150 ft
---- / hdg 231

(D) RW 31 length 5000 ft width 150 ft
---- / hdg 313

Location; KMCN
Day. 19 / Time. 17.53 Zulu
* Altimeter: 30.13
* Temperature: 10° c. 50°f.
* Wind from: 330° Speed 11 kn.
Dewpoint: 00° c.
Visibility: 10 Statute Miles.
Clouds: Clear (automated report).

KMCN 191753Z 33011KT 10SM CLR 10/00 A3013 RMK AO2 SLP199 60002 T01000000 10139 20083 58005


Wind From 330°
Speed 11 kn.

 
 
jpsmedia worldairports.se 2020   terms of use